sensor_id;sensor_type;location;lat;lon;timestamp;P1;durP1;ratioP1;P2;durP2;ratioP2
11943;SDS011;6031;50.220;10.122;2022-10-16T00:00:31;1.10;;;0.93;;
11943;SDS011;6031;50.220;10.122;2022-10-16T00:02:57;1.40;;;1.00;;
11943;SDS011;6031;50.220;10.122;2022-10-16T00:05:23;1.33;;;0.90;;
11943;SDS011;6031;50.220;10.122;2022-10-16T00:07:48;0.93;;;0.90;;
11943;SDS011;6031;50.220;10.122;2022-10-16T00:10:14;0.70;;;0.70;;
11943;SDS011;6031;50.220;10.122;2022-10-16T00:12:40;0.87;;;0.83;;
11943;SDS011;6031;50.220;10.122;2022-10-16T00:15:05;1.70;;;0.90;;
11943;SDS011;6031;50.220;10.122;2022-10-16T00:17:31;1.30;;;1.17;;
11943;SDS011;6031;50.220;10.122;2022-10-16T00:19:57;0.97;;;0.97;;
11943;SDS011;6031;50.220;10.122;2022-10-16T00:22:23;1.83;;;0.93;;
11943;SDS011;6031;50.220;10.122;2022-10-16T00:24:48;4.30;;;1.10;;
11943;SDS011;6031;50.220;10.122;2022-10-16T00:27:14;1.00;;;1.00;;
11943;SDS011;6031;50.220;10.122;2022-10-16T00:29:40;0.80;;;0.80;;
11943;SDS011;6031;50.220;10.122;2022-10-16T00:32:05;1.70;;;1.00;;
11943;SDS011;6031;50.220;10.122;2022-10-16T00:34:31;0.93;;;0.90;;
11943;SDS011;6031;50.220;10.122;2022-10-16T00:36:56;4.97;;;1.17;;
11943;SDS011;6031;50.220;10.122;2022-10-16T00:39:22;2.13;;;1.37;;
11943;SDS011;6031;50.220;10.122;2022-10-16T00:41:48;4.03;;;2.30;;
11943;SDS011;6031;50.220;10.122;2022-10-16T00:49:46;1.27;;;1.17;;
11943;SDS011;6031;50.220;10.122;2022-10-16T00:52:13;1.03;;;0.87;;
11943;SDS011;6031;50.220;10.122;2022-10-16T00:54:39;3.23;;;1.07;;
11943;SDS011;6031;50.220;10.122;2022-10-16T00:57:06;0.60;;;0.60;;
11943;SDS011;6031;50.220;10.122;2022-10-16T00:59:36;1.23;;;0.60;;
11943;SDS011;6031;50.220;10.122;2022-10-16T01:02:05;0.73;;;0.73;;
11943;SDS011;6031;50.220;10.122;2022-10-16T01:04:34;2.47;;;0.93;;
11943;SDS011;6031;50.220;10.122;2022-10-16T01:07:07;0.87;;;0.70;;
11943;SDS011;6031;50.220;10.122;2022-10-16T01:17:31;0.53;;;0.40;;
11943;SDS011;6031;50.220;10.122;2022-10-16T01:20:17;1.07;;;0.73;;
11943;SDS011;6031;50.220;10.122;2022-10-16T01:22:55;2.20;;;0.97;;
11943;SDS011;6031;50.220;10.122;2022-10-16T01:28:18;1.07;;;0.97;;
11943;SDS011;6031;50.220;10.122;2022-10-16T01:30:47;1.00;;;0.97;;
11943;SDS011;6031;50.220;10.122;2022-10-16T01:33:21;3.70;;;0.93;;
11943;SDS011;6031;50.220;10.122;2022-10-16T01:35:52;3.23;;;1.03;;
11943;SDS011;6031;50.220;10.122;2022-10-16T01:38:22;0.90;;;0.90;;
11943;SDS011;6031;50.220;10.122;2022-10-16T01:43:52;1.57;;;1.47;;
11943;SDS011;6031;50.220;10.122;2022-10-16T01:46:25;2.00;;;0.80;;
11943;SDS011;6031;50.220;10.122;2022-10-16T01:48:52;1.33;;;0.90;;
11943;SDS011;6031;50.220;10.122;2022-10-16T01:51:18;3.30;;;1.00;;
11943;SDS011;6031;50.220;10.122;2022-10-16T01:53:47;0.70;;;0.70;;
11943;SDS011;6031;50.220;10.122;2022-10-16T01:56:15;0.87;;;0.87;;
11943;SDS011;6031;50.220;10.122;2022-10-16T01:58:45;1.23;;;1.13;;
11943;SDS011;6031;50.220;10.122;2022-10-16T02:01:15;2.57;;;1.07;;
11943;SDS011;6031;50.220;10.122;2022-10-16T02:03:43;2.17;;;1.00;;
11943;SDS011;6031;50.220;10.122;2022-10-16T02:06:11;1.57;;;0.80;;
11943;SDS011;6031;50.220;10.122;2022-10-16T02:08:37;2.67;;;1.60;;
11943;SDS011;6031;50.220;10.122;2022-10-16T02:11:03;2.90;;;1.80;;
11943;SDS011;6031;50.220;10.122;2022-10-16T02:13:30;2.17;;;1.27;;
11943;SDS011;6031;50.220;10.122;2022-10-16T02:16:01;2.53;;;1.20;;
11943;SDS011;6031;50.220;10.122;2022-10-16T02:18:27;1.03;;;0.97;;
11943;SDS011;6031;50.220;10.122;2022-10-16T02:23:45;1.60;;;1.00;;
11943;SDS011;6031;50.220;10.122;2022-10-16T02:26:31;1.37;;;1.00;;
11943;SDS011;6031;50.220;10.122;2022-10-16T02:29:07;0.80;;;0.80;;
11943;SDS011;6031;50.220;10.122;2022-10-16T02:34:46;1.83;;;0.73;;
11943;SDS011;6031;50.220;10.122;2022-10-16T02:37:14;2.83;;;0.70;;
11943;SDS011;6031;50.220;10.122;2022-10-16T02:39:40;1.57;;;1.47;;
11943;SDS011;6031;50.220;10.122;2022-10-16T02:42:09;0.70;;;0.70;;
11943;SDS011;6031;50.220;10.122;2022-10-16T02:44:39;0.80;;;0.80;;
11943;SDS011;6031;50.220;10.122;2022-10-16T02:47:04;0.73;;;0.73;;
11943;SDS011;6031;50.220;10.122;2022-10-16T02:49:30;1.03;;;0.93;;
11943;SDS011;6031;50.220;10.122;2022-10-16T02:51:56;0.67;;;0.67;;
11943;SDS011;6031;50.220;10.122;2022-10-16T02:54:21;0.60;;;0.60;;
11943;SDS011;6031;50.220;10.122;2022-10-16T02:56:47;0.87;;;0.87;;
11943;SDS011;6031;50.220;10.122;2022-10-16T02:59:12;0.57;;;0.57;;
11943;SDS011;6031;50.220;10.122;2022-10-16T03:01:38;0.70;;;0.70;;
11943;SDS011;6031;50.220;10.122;2022-10-16T03:04:03;0.70;;;0.70;;
11943;SDS011;6031;50.220;10.122;2022-10-16T03:06:29;0.93;;;0.93;;
11943;SDS011;6031;50.220;10.122;2022-10-16T03:08:55;1.60;;;0.80;;
11943;SDS011;6031;50.220;10.122;2022-10-16T03:11:20;0.70;;;0.70;;
11943;SDS011;6031;50.220;10.122;2022-10-16T03:13:46;0.70;;;0.70;;
11943;SDS011;6031;50.220;10.122;2022-10-16T03:16:11;3.30;;;0.70;;
11943;SDS011;6031;50.220;10.122;2022-10-16T03:18:37;0.40;;;0.40;;
11943;SDS011;6031;50.220;10.122;2022-10-16T03:21:02;2.30;;;0.90;;
11943;SDS011;6031;50.220;10.122;2022-10-16T03:23:28;0.70;;;0.70;;
11943;SDS011;6031;50.220;10.122;2022-10-16T03:25:54;1.03;;;1.03;;
11943;SDS011;6031;50.220;10.122;2022-10-16T03:28:20;1.20;;;1.20;;
11943;SDS011;6031;50.220;10.122;2022-10-16T03:30:45;0.87;;;0.87;;
11943;SDS011;6031;50.220;10.122;2022-10-16T03:33:11;0.87;;;0.83;;
11943;SDS011;6031;50.220;10.122;2022-10-16T03:35:37;0.70;;;0.70;;
11943;SDS011;6031;50.220;10.122;2022-10-16T03:38:03;1.60;;;0.60;;
11943;SDS011;6031;50.220;10.122;2022-10-16T03:40:28;1.47;;;0.90;;
11943;SDS011;6031;50.220;10.122;2022-10-16T03:42:54;0.97;;;0.90;;
11943;SDS011;6031;50.220;10.122;2022-10-16T03:45:22;1.87;;;1.17;;
11943;SDS011;6031;50.220;10.122;2022-10-16T03:47:48;2.43;;;0.93;;
11943;SDS011;6031;50.220;10.122;2022-10-16T03:50:13;0.73;;;0.73;;
11943;SDS011;6031;50.220;10.122;2022-10-16T03:52:39;0.70;;;0.70;;
11943;SDS011;6031;50.220;10.122;2022-10-16T03:55:04;0.90;;;0.90;;
11943;SDS011;6031;50.220;10.122;2022-10-16T03:57:30;0.83;;;0.60;;
11943;SDS011;6031;50.220;10.122;2022-10-16T03:59:56;0.60;;;0.60;;
11943;SDS011;6031;50.220;10.122;2022-10-16T04:02:21;0.70;;;0.70;;
11943;SDS011;6031;50.220;10.122;2022-10-16T04:04:47;1.73;;;0.70;;
11943;SDS011;6031;50.220;10.122;2022-10-16T04:07:13;0.70;;;0.70;;
11943;SDS011;6031;50.220;10.122;2022-10-16T04:09:38;1.60;;;0.70;;
11943;SDS011;6031;50.220;10.122;2022-10-16T04:12:04;1.10;;;1.00;;
11943;SDS011;6031;50.220;10.122;2022-10-16T04:14:29;1.67;;;1.13;;
11943;SDS011;6031;50.220;10.122;2022-10-16T04:16:55;1.30;;;1.23;;
11943;SDS011;6031;50.220;10.122;2022-10-16T04:19:20;2.47;;;0.80;;
11943;SDS011;6031;50.220;10.122;2022-10-16T04:21:46;0.90;;;0.90;;
11943;SDS011;6031;50.220;10.122;2022-10-16T04:24:11;0.50;;;0.50;;
11943;SDS011;6031;50.220;10.122;2022-10-16T04:26:37;1.63;;;1.53;;
11943;SDS011;6031;50.220;10.122;2022-10-16T04:29:03;2.80;;;2.07;;
11943;SDS011;6031;50.220;10.122;2022-10-16T04:31:28;3.03;;;2.73;;
11943;SDS011;6031;50.220;10.122;2022-10-16T04:33:54;1.00;;;1.00;;
11943;SDS011;6031;50.220;10.122;2022-10-16T04:36:20;1.50;;;1.40;;
11943;SDS011;6031;50.220;10.122;2022-10-16T04:38:45;0.77;;;0.60;;
11943;SDS011;6031;50.220;10.122;2022-10-16T04:41:11;0.80;;;0.80;;
11943;SDS011;6031;50.220;10.122;2022-10-16T04:43:36;0.83;;;0.83;;
11943;SDS011;6031;50.220;10.122;2022-10-16T04:46:02;1.90;;;1.13;;
11943;SDS011;6031;50.220;10.122;2022-10-16T04:48:29;0.90;;;0.90;;
11943;SDS011;6031;50.220;10.122;2022-10-16T04:50:55;1.27;;;1.20;;
11943;SDS011;6031;50.220;10.122;2022-10-16T04:53:21;0.77;;;0.77;;
11943;SDS011;6031;50.220;10.122;2022-10-16T04:55:46;0.77;;;0.77;;
11943;SDS011;6031;50.220;10.122;2022-10-16T04:58:12;0.70;;;0.70;;
11943;SDS011;6031;50.220;10.122;2022-10-16T05:00:37;2.30;;;0.87;;
11943;SDS011;6031;50.220;10.122;2022-10-16T05:03:03;0.60;;;0.60;;
11943;SDS011;6031;50.220;10.122;2022-10-16T05:05:32;1.17;;;1.07;;
11943;SDS011;6031;50.220;10.122;2022-10-16T05:07:58;2.20;;;0.80;;
11943;SDS011;6031;50.220;10.122;2022-10-16T05:10:24;1.27;;;1.13;;
11943;SDS011;6031;50.220;10.122;2022-10-16T05:12:49;1.10;;;0.90;;
11943;SDS011;6031;50.220;10.122;2022-10-16T05:15:16;1.57;;;0.77;;
11943;SDS011;6031;50.220;10.122;2022-10-16T05:17:42;0.77;;;0.70;;
11943;SDS011;6031;50.220;10.122;2022-10-16T05:20:07;3.83;;;0.90;;
11943;SDS011;6031;50.220;10.122;2022-10-16T05:22:33;1.23;;;0.70;;
11943;SDS011;6031;50.220;10.122;2022-10-16T05:24:58;1.80;;;1.10;;
11943;SDS011;6031;50.220;10.122;2022-10-16T05:27:24;1.50;;;1.23;;
11943;SDS011;6031;50.220;10.122;2022-10-16T05:29:49;0.80;;;0.80;;
11943;SDS011;6031;50.220;10.122;2022-10-16T05:32:16;0.93;;;0.93;;
11943;SDS011;6031;50.220;10.122;2022-10-16T05:34:42;1.70;;;1.43;;
11943;SDS011;6031;50.220;10.122;2022-10-16T05:37:09;1.47;;;1.03;;
11943;SDS011;6031;50.220;10.122;2022-10-16T05:39:36;2.03;;;1.83;;
11943;SDS011;6031;50.220;10.122;2022-10-16T05:42:02;1.30;;;1.13;;
11943;SDS011;6031;50.220;10.122;2022-10-16T05:44:28;1.50;;;1.40;;
11943;SDS011;6031;50.220;10.122;2022-10-16T05:46:54;1.83;;;1.70;;
11943;SDS011;6031;50.220;10.122;2022-10-16T05:49:19;1.73;;;1.63;;
11943;SDS011;6031;50.220;10.122;2022-10-16T05:51:45;12.10;;;10.83;;
11943;SDS011;6031;50.220;10.122;2022-10-16T05:54:10;15.07;;;12.37;;
11943;SDS011;6031;50.220;10.122;2022-10-16T05:56:36;7.23;;;5.57;;
11943;SDS011;6031;50.220;10.122;2022-10-16T05:59:03;3.70;;;3.37;;
11943;SDS011;6031;50.220;10.122;2022-10-16T06:01:29;2.10;;;1.47;;
11943;SDS011;6031;50.220;10.122;2022-10-16T06:03:55;1.83;;;1.73;;
11943;SDS011;6031;50.220;10.122;2022-10-16T06:06:22;5.93;;;5.43;;
11943;SDS011;6031;50.220;10.122;2022-10-16T06:08:50;3.67;;;2.17;;
11943;SDS011;6031;50.220;10.122;2022-10-16T06:11:20;1.33;;;1.30;;
11943;SDS011;6031;50.220;10.122;2022-10-16T06:13:54;1.50;;;1.40;;
11943;SDS011;6031;50.220;10.122;2022-10-16T06:16:21;2.87;;;2.10;;
11943;SDS011;6031;50.220;10.122;2022-10-16T06:18:50;1.80;;;1.70;;
11943;SDS011;6031;50.220;10.122;2022-10-16T06:21:17;2.50;;;2.23;;
11943;SDS011;6031;50.220;10.122;2022-10-16T06:23:44;1.90;;;1.80;;
11943;SDS011;6031;50.220;10.122;2022-10-16T06:26:17;2.10;;;1.80;;
11943;SDS011;6031;50.220;10.122;2022-10-16T06:28:44;2.30;;;1.80;;
11943;SDS011;6031;50.220;10.122;2022-10-16T06:31:11;2.80;;;1.83;;
11943;SDS011;6031;50.220;10.122;2022-10-16T06:33:37;2.10;;;2.00;;
11943;SDS011;6031;50.220;10.122;2022-10-16T06:36:05;2.93;;;2.10;;
11943;SDS011;6031;50.220;10.122;2022-10-16T06:38:35;3.73;;;2.43;;
11943;SDS011;6031;50.220;10.122;2022-10-16T06:41:01;4.67;;;3.27;;
11943;SDS011;6031;50.220;10.122;2022-10-16T06:43:28;3.10;;;2.90;;
11943;SDS011;6031;50.220;10.122;2022-10-16T06:45:58;2.93;;;2.73;;
11943;SDS011;6031;50.220;10.122;2022-10-16T06:48:24;7.67;;;6.93;;
11943;SDS011;6031;50.220;10.122;2022-10-16T06:50:57;9.90;;;8.90;;
11943;SDS011;6031;50.220;10.122;2022-10-16T06:53:28;16.50;;;14.00;;
11943;SDS011;6031;50.220;10.122;2022-10-16T06:55:55;11.60;;;10.40;;
11943;SDS011;6031;50.220;10.122;2022-10-16T06:58:21;6.37;;;5.80;;
11943;SDS011;6031;50.220;10.122;2022-10-16T07:00:46;4.70;;;4.30;;
11943;SDS011;6031;50.220;10.122;2022-10-16T07:03:12;3.63;;;3.33;;
11943;SDS011;6031;50.220;10.122;2022-10-16T07:05:38;4.20;;;3.90;;
11943;SDS011;6031;50.220;10.122;2022-10-16T07:08:08;4.47;;;4.10;;
11943;SDS011;6031;50.220;10.122;2022-10-16T07:10:34;5.17;;;4.50;;
11943;SDS011;6031;50.220;10.122;2022-10-16T07:12:59;4.93;;;4.47;;
11943;SDS011;6031;50.220;10.122;2022-10-16T07:15:25;4.60;;;4.20;;
11943;SDS011;6031;50.220;10.122;2022-10-16T07:17:51;5.10;;;4.60;;
11943;SDS011;6031;50.220;10.122;2022-10-16T07:20:17;4.13;;;3.73;;
11943;SDS011;6031;50.220;10.122;2022-10-16T07:22:43;3.00;;;2.80;;
11943;SDS011;6031;50.220;10.122;2022-10-16T07:25:09;3.20;;;2.90;;
11943;SDS011;6031;50.220;10.122;2022-10-16T07:27:35;3.97;;;3.57;;
11943;SDS011;6031;50.220;10.122;2022-10-16T07:30:01;4.37;;;3.97;;
11943;SDS011;6031;50.220;10.122;2022-10-16T07:32:28;4.87;;;3.40;;
11943;SDS011;6031;50.220;10.122;2022-10-16T07:34:53;3.20;;;2.80;;
11943;SDS011;6031;50.220;10.122;2022-10-16T07:37:20;2.50;;;2.30;;
11943;SDS011;6031;50.220;10.122;2022-10-16T07:39:46;3.70;;;2.23;;
11943;SDS011;6031;50.220;10.122;2022-10-16T07:42:11;2.37;;;2.17;;
11943;SDS011;6031;50.220;10.122;2022-10-16T07:44:37;2.00;;;1.67;;
11943;SDS011;6031;50.220;10.122;2022-10-16T07:47:03;2.77;;;2.10;;
11943;SDS011;6031;50.220;10.122;2022-10-16T07:49:28;1.90;;;1.80;;
11943;SDS011;6031;50.220;10.122;2022-10-16T07:51:54;1.80;;;1.40;;
11943;SDS011;6031;50.220;10.122;2022-10-16T07:54:19;2.10;;;1.50;;
11943;SDS011;6031;50.220;10.122;2022-10-16T07:56:45;2.70;;;1.70;;
11943;SDS011;6031;50.220;10.122;2022-10-16T07:59:10;1.10;;;1.10;;
11943;SDS011;6031;50.220;10.122;2022-10-16T08:01:36;1.67;;;1.57;;
11943;SDS011;6031;50.220;10.122;2022-10-16T08:04:01;1.90;;;1.80;;
11943;SDS011;6031;50.220;10.122;2022-10-16T08:06:27;1.60;;;1.50;;
11943;SDS011;6031;50.220;10.122;2022-10-16T08:08:52;1.90;;;1.60;;
11943;SDS011;6031;50.220;10.122;2022-10-16T08:11:18;1.33;;;1.23;;
11943;SDS011;6031;50.220;10.122;2022-10-16T08:13:44;1.97;;;1.40;;
11943;SDS011;6031;50.220;10.122;2022-10-16T08:16:09;1.60;;;1.50;;
11943;SDS011;6031;50.220;10.122;2022-10-16T08:18:37;2.13;;;2.03;;
11943;SDS011;6031;50.220;10.122;2022-10-16T08:21:04;2.63;;;1.47;;
11943;SDS011;6031;50.220;10.122;2022-10-16T08:23:30;4.17;;;1.70;;
11943;SDS011;6031;50.220;10.122;2022-10-16T08:26:01;2.10;;;1.83;;
11943;SDS011;6031;50.220;10.122;2022-10-16T08:28:30;5.67;;;1.67;;
11943;SDS011;6031;50.220;10.122;2022-10-16T08:30:56;3.20;;;1.80;;
11943;SDS011;6031;50.220;10.122;2022-10-16T08:33:33;1.87;;;1.77;;
11943;SDS011;6031;50.220;10.122;2022-10-16T08:36:00;2.00;;;1.63;;
11943;SDS011;6031;50.220;10.122;2022-10-16T08:38:26;1.60;;;1.50;;
11943;SDS011;6031;50.220;10.122;2022-10-16T08:40:51;1.93;;;1.80;;
11943;SDS011;6031;50.220;10.122;2022-10-16T08:49:51;1.83;;;1.73;;
11943;SDS011;6031;50.220;10.122;2022-10-16T08:52:29;1.53;;;0.90;;
11943;SDS011;6031;50.220;10.122;2022-10-16T08:54:57;3.27;;;1.20;;
11943;SDS011;6031;50.220;10.122;2022-10-16T08:57:24;1.10;;;1.00;;
11943;SDS011;6031;50.220;10.122;2022-10-16T08:59:52;1.80;;;1.50;;
11943;SDS011;6031;50.220;10.122;2022-10-16T09:02:36;1.13;;;1.13;;
11943;SDS011;6031;50.220;10.122;2022-10-16T09:13:29;3.47;;;2.43;;
11943;SDS011;6031;50.220;10.122;2022-10-16T09:16:05;1.50;;;1.40;;
11943;SDS011;6031;50.220;10.122;2022-10-16T09:21:29;1.43;;;1.30;;
11943;SDS011;6031;50.220;10.122;2022-10-16T09:23:58;6.73;;;1.40;;
11943;SDS011;6031;50.220;10.122;2022-10-16T09:26:32;3.27;;;2.23;;
11943;SDS011;6031;50.220;10.122;2022-10-16T09:28:57;2.83;;;2.00;;
11943;SDS011;6031;50.220;10.122;2022-10-16T09:31:23;4.67;;;2.50;;
11943;SDS011;6031;50.220;10.122;2022-10-16T09:33:53;8.10;;;3.00;;
11943;SDS011;6031;50.220;10.122;2022-10-16T09:36:25;2.27;;;2.07;;
11943;SDS011;6031;50.220;10.122;2022-10-16T09:39:06;5.53;;;3.50;;
11943;SDS011;6031;50.220;10.122;2022-10-16T09:41:37;2.97;;;2.77;;
11943;SDS011;6031;50.220;10.122;2022-10-16T09:44:06;3.80;;;2.50;;
11943;SDS011;6031;50.220;10.122;2022-10-16T09:46:44;4.03;;;2.47;;
11943;SDS011;6031;50.220;10.122;2022-10-16T09:49:25;2.90;;;2.70;;
11943;SDS011;6031;50.220;10.122;2022-10-16T09:52:02;4.20;;;3.40;;
11943;SDS011;6031;50.220;10.122;2022-10-16T09:54:36;3.93;;;3.53;;
11943;SDS011;6031;50.220;10.122;2022-10-16T09:57:06;7.23;;;4.50;;
11943;SDS011;6031;50.220;10.122;2022-10-16T09:59:32;6.23;;;4.07;;
11943;SDS011;6031;50.220;10.122;2022-10-16T10:02:01;6.17;;;4.53;;
11943;SDS011;6031;50.220;10.122;2022-10-16T10:04:37;7.33;;;6.37;;
11943;SDS011;6031;50.220;10.122;2022-10-16T10:07:16;9.70;;;7.10;;
11943;SDS011;6031;50.220;10.122;2022-10-16T10:09:44;5.30;;;4.70;;
11943;SDS011;6031;50.220;10.122;2022-10-16T10:12:18;5.87;;;4.63;;
11943;SDS011;6031;50.220;10.122;2022-10-16T10:14:52;5.63;;;4.77;;
11943;SDS011;6031;50.220;10.122;2022-10-16T10:17:24;7.67;;;6.93;;
11943;SDS011;6031;50.220;10.122;2022-10-16T10:27:37;3.13;;;2.83;;
11943;SDS011;6031;50.220;10.122;2022-10-16T10:32:47;4.60;;;3.40;;
11943;SDS011;6031;50.220;10.122;2022-10-16T10:35:33;3.67;;;3.03;;
11943;SDS011;6031;50.220;10.122;2022-10-16T10:38:09;6.13;;;3.07;;
11943;SDS011;6031;50.220;10.122;2022-10-16T10:40:43;4.67;;;2.73;;
11943;SDS011;6031;50.220;10.122;2022-10-16T10:45:47;3.27;;;2.97;;
11943;SDS011;6031;50.220;10.122;2022-10-16T10:51:05;2.93;;;2.67;;
11943;SDS011;6031;50.220;10.122;2022-10-16T10:59:20;5.20;;;4.70;;
11943;SDS011;6031;50.220;10.122;2022-10-16T11:04:25;8.47;;;5.47;;
11943;SDS011;6031;50.220;10.122;2022-10-16T11:07:04;2.00;;;1.50;;
11943;SDS011;6031;50.220;10.122;2022-10-16T11:09:38;1.63;;;1.50;;
11943;SDS011;6031;50.220;10.122;2022-10-16T11:12:16;3.80;;;1.87;;
11943;SDS011;6031;50.220;10.122;2022-10-16T11:15:36;3.10;;;2.50;;
11943;SDS011;6031;50.220;10.122;2022-10-16T11:17:48;2.13;;;1.83;;
11943;SDS011;6031;50.220;10.122;2022-10-16T11:20:32;2.20;;;1.20;;
11943;SDS011;6031;50.220;10.122;2022-10-16T11:23:06;4.70;;;1.40;;
11943;SDS011;6031;50.220;10.122;2022-10-16T11:25:35;1.77;;;1.30;;
11943;SDS011;6031;50.220;10.122;2022-10-16T11:28:14;1.30;;;1.20;;
11943;SDS011;6031;50.220;10.122;2022-10-16T11:41:13;1.97;;;1.07;;
11943;SDS011;6031;50.220;10.122;2022-10-16T11:43:48;0.83;;;0.83;;
11943;SDS011;6031;50.220;10.122;2022-10-16T11:46:23;9.70;;;7.73;;
11943;SDS011;6031;50.220;10.122;2022-10-16T11:48:54;1.20;;;1.20;;
11943;SDS011;6031;50.220;10.122;2022-10-16T11:54:36;1.63;;;1.17;;
11943;SDS011;6031;50.220;10.122;2022-10-16T12:00:21;1.40;;;1.30;;
11943;SDS011;6031;50.220;10.122;2022-10-16T12:02:57;1.40;;;1.30;;
11943;SDS011;6031;50.220;10.122;2022-10-16T12:08:20;1.87;;;1.77;;
11943;SDS011;6031;50.220;10.122;2022-10-16T12:10:46;0.97;;;0.90;;
11943;SDS011;6031;50.220;10.122;2022-10-16T12:18:37;0.80;;;0.80;;
11943;SDS011;6031;50.220;10.122;2022-10-16T12:21:06;2.17;;;1.00;;
11943;SDS011;6031;50.220;10.122;2022-10-16T12:23:46;2.57;;;1.27;;
11943;SDS011;6031;50.220;10.122;2022-10-16T12:26:12;2.03;;;1.17;;
11943;SDS011;6031;50.220;10.122;2022-10-16T12:28:38;1.80;;;1.43;;
11943;SDS011;6031;50.220;10.122;2022-10-16T12:31:06;4.37;;;1.20;;
11943;SDS011;6031;50.220;10.122;2022-10-16T12:33:39;1.13;;;1.10;;
11943;SDS011;6031;50.220;10.122;2022-10-16T12:36:09;1.00;;;1.00;;
11943;SDS011;6031;50.220;10.122;2022-10-16T12:38:51;1.03;;;0.83;;
11943;SDS011;6031;50.220;10.122;2022-10-16T12:41:28;1.20;;;1.10;;
11943;SDS011;6031;50.220;10.122;2022-10-16T12:43:55;2.87;;;1.40;;
11943;SDS011;6031;50.220;10.122;2022-10-16T12:48:49;1.20;;;1.10;;
11943;SDS011;6031;50.220;10.122;2022-10-16T12:51:32;1.50;;;1.20;;
11943;SDS011;6031;50.220;10.122;2022-10-16T13:07:46;1.90;;;1.50;;
11943;SDS011;6031;50.220;10.122;2022-10-16T13:10:37;1.40;;;1.40;;
11943;SDS011;6031;50.220;10.122;2022-10-16T13:16:22;1.23;;;1.23;;
11943;SDS011;6031;50.220;10.122;2022-10-16T13:21:49;6.93;;;6.33;;
11943;SDS011;6031;50.220;10.122;2022-10-16T13:24:36;3.90;;;3.60;;
11943;SDS011;6031;50.220;10.122;2022-10-16T13:32:38;1.60;;;1.48;;
11943;SDS011;6031;50.220;10.122;2022-10-16T13:35:15;0.82;;;0.82;;
11943;SDS011;6031;50.220;10.122;2022-10-16T13:37:44;1.67;;;1.23;;
11943;SDS011;6031;50.220;10.122;2022-10-16T13:40:23;1.92;;;1.83;;
11943;SDS011;6031;50.220;10.122;2022-10-16T13:42:52;5.43;;;4.85;;
11943;SDS011;6031;50.220;10.122;2022-10-16T13:45:22;4.33;;;3.90;;
11943;SDS011;6031;50.220;10.122;2022-10-16T13:48:00;5.18;;;2.30;;
11943;SDS011;6031;50.220;10.122;2022-10-16T13:50:30;2.53;;;1.27;;
11943;SDS011;6031;50.220;10.122;2022-10-16T13:55:51;0.73;;;0.70;;
11943;SDS011;6031;50.220;10.122;2022-10-16T13:58:16;0.93;;;0.85;;
11943;SDS011;6031;50.220;10.122;2022-10-16T14:01:04;1.43;;;1.10;;
11943;SDS011;6031;50.220;10.122;2022-10-16T14:03:37;0.90;;;0.90;;
11943;SDS011;6031;50.220;10.122;2022-10-16T14:06:03;1.50;;;1.40;;
11943;SDS011;6031;50.220;10.122;2022-10-16T14:08:36;2.03;;;1.83;;
11943;SDS011;6031;50.220;10.122;2022-10-16T14:11:08;4.60;;;4.17;;
11943;SDS011;6031;50.220;10.122;2022-10-16T14:13:42;1.23;;;1.23;;
11943;SDS011;6031;50.220;10.122;2022-10-16T14:16:10;4.93;;;1.10;;
11943;SDS011;6031;50.220;10.122;2022-10-16T14:18:46;1.67;;;1.57;;
11943;SDS011;6031;50.220;10.122;2022-10-16T14:21:16;3.77;;;3.43;;
11943;SDS011;6031;50.220;10.122;2022-10-16T14:23:43;2.60;;;2.40;;
11943;SDS011;6031;50.220;10.122;2022-10-16T14:28:34;4.43;;;1.30;;
11943;SDS011;6031;50.220;10.122;2022-10-16T14:31:02;1.23;;;1.07;;
11943;SDS011;6031;50.220;10.122;2022-10-16T14:33:48;3.60;;;3.30;;
11943;SDS011;6031;50.220;10.122;2022-10-16T14:36:14;1.97;;;1.83;;
11943;SDS011;6031;50.220;10.122;2022-10-16T14:38:48;6.47;;;4.27;;
11943;SDS011;6031;50.220;10.122;2022-10-16T14:41:40;5.13;;;4.03;;
11943;SDS011;6031;50.220;10.122;2022-10-16T14:44:09;1.90;;;1.80;;
11943;SDS011;6031;50.220;10.122;2022-10-16T14:46:37;4.77;;;3.50;;
11943;SDS011;6031;50.220;10.122;2022-10-16T14:51:40;8.93;;;7.60;;
11943;SDS011;6031;50.220;10.122;2022-10-16T14:54:08;7.23;;;6.10;;
11943;SDS011;6031;50.220;10.122;2022-10-16T14:56:43;6.23;;;5.63;;
11943;SDS011;6031;50.220;10.122;2022-10-16T14:59:14;3.90;;;3.60;;
11943;SDS011;6031;50.220;10.122;2022-10-16T15:01:44;3.57;;;3.20;;
11943;SDS011;6031;50.220;10.122;2022-10-16T15:04:10;5.40;;;3.93;;
11943;SDS011;6031;50.220;10.122;2022-10-16T15:06:37;5.87;;;5.20;;
11943;SDS011;6031;50.220;10.122;2022-10-16T15:09:03;3.30;;;3.00;;
11943;SDS011;6031;50.220;10.122;2022-10-16T15:11:28;4.30;;;4.00;;
11943;SDS011;6031;50.220;10.122;2022-10-16T15:13:56;4.07;;;3.67;;
11943;SDS011;6031;50.220;10.122;2022-10-16T15:16:21;10.83;;;8.40;;
11943;SDS011;6031;50.220;10.122;2022-10-16T15:18:47;3.40;;;2.93;;
11943;SDS011;6031;50.220;10.122;2022-10-16T15:23:51;5.77;;;3.40;;
11943;SDS011;6031;50.220;10.122;2022-10-16T15:26:17;6.03;;;3.43;;
11943;SDS011;6031;50.220;10.122;2022-10-16T15:28:43;2.53;;;1.97;;
11943;SDS011;6031;50.220;10.122;2022-10-16T15:31:08;1.80;;;1.60;;
11943;SDS011;6031;50.220;10.122;2022-10-16T15:33:34;1.47;;;1.40;;
11943;SDS011;6031;50.220;10.122;2022-10-16T15:36:00;3.23;;;1.50;;
11943;SDS011;6031;50.220;10.122;2022-10-16T15:38:27;2.33;;;1.97;;
11943;SDS011;6031;50.220;10.122;2022-10-16T15:40:54;2.93;;;2.20;;
11943;SDS011;6031;50.220;10.122;2022-10-16T15:43:20;1.27;;;1.23;;
11943;SDS011;6031;50.220;10.122;2022-10-16T15:45:52;3.63;;;2.30;;
11943;SDS011;6031;50.220;10.122;2022-10-16T15:48:27;4.63;;;3.30;;
11943;SDS011;6031;50.220;10.122;2022-10-16T15:50:54;3.03;;;2.70;;
11943;SDS011;6031;50.220;10.122;2022-10-16T15:53:19;5.80;;;3.00;;
11943;SDS011;6031;50.220;10.122;2022-10-16T15:55:45;3.93;;;2.80;;
11943;SDS011;6031;50.220;10.122;2022-10-16T15:58:10;3.30;;;2.27;;
11943;SDS011;6031;50.220;10.122;2022-10-16T16:00:36;4.00;;;3.60;;
11943;SDS011;6031;50.220;10.122;2022-10-16T16:03:02;2.03;;;1.83;;
11943;SDS011;6031;50.220;10.122;2022-10-16T16:05:28;2.30;;;1.97;;
11943;SDS011;6031;50.220;10.122;2022-10-16T16:07:53;3.10;;;2.90;;
11943;SDS011;6031;50.220;10.122;2022-10-16T16:10:19;2.50;;;2.07;;
11943;SDS011;6031;50.220;10.122;2022-10-16T16:12:46;8.50;;;2.83;;
11943;SDS011;6031;50.220;10.122;2022-10-16T16:15:17;4.93;;;2.47;;
11943;SDS011;6031;50.220;10.122;2022-10-16T16:17:47;3.17;;;2.90;;
11943;SDS011;6031;50.220;10.122;2022-10-16T16:20:13;3.60;;;3.10;;
11943;SDS011;6031;50.220;10.122;2022-10-16T16:22:39;7.50;;;3.07;;
11943;SDS011;6031;50.220;10.122;2022-10-16T16:25:05;4.60;;;4.13;;
11943;SDS011;6031;50.220;10.122;2022-10-16T16:27:30;6.00;;;5.07;;
11943;SDS011;6031;50.220;10.122;2022-10-16T16:29:58;7.50;;;6.67;;
11943;SDS011;6031;50.220;10.122;2022-10-16T16:32:25;11.50;;;6.90;;
11943;SDS011;6031;50.220;10.122;2022-10-16T16:34:50;9.67;;;7.07;;
11943;SDS011;6031;50.220;10.122;2022-10-16T16:37:16;6.37;;;5.30;;
11943;SDS011;6031;50.220;10.122;2022-10-16T16:39:42;6.40;;;5.70;;
11943;SDS011;6031;50.220;10.122;2022-10-16T16:42:07;8.93;;;5.80;;
11943;SDS011;6031;50.220;10.122;2022-10-16T16:44:34;9.10;;;6.60;;
11943;SDS011;6031;50.220;10.122;2022-10-16T16:47:01;12.30;;;7.63;;
11943;SDS011;6031;50.220;10.122;2022-10-16T16:49:27;7.97;;;6.33;;
11943;SDS011;6031;50.220;10.122;2022-10-16T16:51:53;7.70;;;6.03;;
11943;SDS011;6031;50.220;10.122;2022-10-16T16:54:19;12.20;;;8.73;;
11943;SDS011;6031;50.220;10.122;2022-10-16T16:56:45;13.23;;;10.73;;
11943;SDS011;6031;50.220;10.122;2022-10-16T16:59:14;11.53;;;9.73;;
11943;SDS011;6031;50.220;10.122;2022-10-16T17:01:43;15.37;;;9.33;;
11943;SDS011;6031;50.220;10.122;2022-10-16T17:04:08;11.47;;;8.97;;
11943;SDS011;6031;50.220;10.122;2022-10-16T17:06:35;13.67;;;8.03;;